Time;durP1;ratioP1;P1;durP2;ratioP2;P2;SDS_P1;SDS_P2;PMS_P1;PMS_P2;Temp;Humidity;BMP_temperature;BMP_pressure;BME280_temperature;BME280_humidity;BME280_pressure;Samples;Min_cycle;Max_cycle;Signal;HPM_P1;HPM_P2
2021/03/03 05:01:10;;;;;;;14.73;10.55;;;5.40;46.40;;;;;;6160143;22;20562;-89
2021/03/03 05:03:35;;;;;;;16.83;11.15;;;5.40;45.80;;;;;;6223200;23;20248;-89
2021/03/03 05:06:01;;;;;;;13.87;11.60;;;5.40;46.40;;;;;;6222903;23;20544;-89
2021/03/03 05:08:26;;;;;;;14.27;11.00;;;5.60;46.30;;;;;;6223698;23;20169;-89
2021/03/03 05:10:52;;;;;;;13.23;9.47;;;5.50;45.70;;;;;;6223356;23;20229;-90
2021/03/03 05:13:18;;;;;;;12.43;9.30;;;5.60;45.70;;;;;;6223404;23;20138;-89
2021/03/03 05:15:44;;;;;;;14.00;9.77;;;5.50;45.70;;;;;;6223683;23;20213;-90
2021/03/03 05:18:10;;;;;;;15.40;9.63;;;5.50;46.30;;;;;;6223645;23;20569;-91
2021/03/03 05:20:39;;;;;;;13.73;11.00;;;5.30;46.80;;;;;;6223776;23;20200;-89
2021/03/03 05:23:37;;;;;;;16.92;11.02;;;5.80;46.40;;;;;;6223675;23;20479;-94
2021/03/03 05:26:05;;;;;;;13.07;10.38;;;5.40;46.50;;;;;;6224067;23;20612;-90
2021/03/03 05:28:32;;;;;;;14.95;10.30;;;6.00;46.10;;;;;;6223646;23;20223;-90
2021/03/03 05:30:58;;;;;;;14.90;11.15;;;5.00;46.00;;;;;;6223169;23;20144;-89
2021/03/03 05:33:31;;;;;;;15.07;11.00;;;5.50;46.10;;;;;;6223093;23;20224;-90
2021/03/03 05:35:59;;;;;;;13.77;10.30;;;5.60;46.60;;;;;;6222850;23;20176;-90
2021/03/03 05:38:26;;;;;;;15.45;11.10;;;5.20;45.90;;;;;;6223504;23;20213;-90
2021/03/03 05:40:54;;;;;;;14.93;11.00;;;4.80;45.60;;;;;;6223181;23;20240;-90
2021/03/03 05:43:20;;;;;;;13.77;9.55;;;5.40;46.20;;;;;;6223332;23;20146;-90
2021/03/03 05:45:49;;;;;;;12.63;10.18;;;5.90;47.00;;;;;;6223372;23;20480;-90
2021/03/03 05:49:01;;;;;;;15.88;11.00;;;5.20;45.80;;;;;;6222959;23;20181;-90
2021/03/03 05:51:29;;;;;;;15.95;11.63;;;5.40;46.40;;;;;;6102918;23;20144;-90
2021/03/03 05:53:55;;;;;;;13.45;10.00;;;5.60;46.40;;;;;;6212734;23;20157;-90
2021/03/03 05:56:24;;;;;;;11.15;9.77;;;5.40;46.20;;;;;;6223341;23;20150;-90
2021/03/03 05:58:50;;;;;;;15.60;10.38;;;5.50;45.90;;;;;;6223441;23;20552;-90
2021/03/03 06:01:16;;;;;;;15.20;12.47;;;4.90;46.00;;;;;;6222493;23;20156;-90
2021/03/03 06:03:42;;;;;;;15.18;11.85;;;5.60;46.40;;;;;;6222027;23;20419;-91
2021/03/03 06:06:11;;;;;;;17.80;13.97;;;5.80;46.20;;;;;;6221694;23;20146;-90
2021/03/03 06:08:36;;;;;;;22.23;14.20;;;5.80;47.60;;;;;;6221575;23;20142;-90
2021/03/03 06:11:15;;;;;;;19.27;12.20;;;4.40;47.00;;;;;;6221608;23;20176;-91
2021/03/03 06:13:40;;;;;;;16.20;12.80;;;5.30;48.80;;;;;;6221246;23;20137;-89
2021/03/03 06:16:07;;;;;;;16.50;12.80;;;4.50;47.20;;;;;;6222277;23;20188;-90
2021/03/03 06:18:32;;;;;;;14.75;11.90;;;4.80;47.30;;;;;;6221513;23;20122;-89
2021/03/03 06:20:58;;;;;;;19.00;14.10;;;4.80;47.30;;;;;;6221267;23;20180;-89
2021/03/03 06:23:28;;;;;;;14.67;11.60;;;5.20;47.00;;;;;;6220885;23;20835;-89
2021/03/03 06:25:57;;;;;;;18.85;13.93;;;5.40;47.20;;;;;;6220943;23;20142;-89
2021/03/03 06:28:35;;;;;;;19.40;13.40;;;5.20;46.20;;;;;;6221382;23;20284;-89
2021/03/03 06:31:22;;;;;;;19.67;13.82;;;5.40;47.30;;;;;;6220565;23;20149;-88
2021/03/03 06:33:48;;;;;;;18.35;13.48;;;5.30;47.20;;;;;;6222489;23;20142;-89
2021/03/03 06:36:32;;;;;;;13.57;11.63;;;5.50;46.30;;;;;;6220363;23;20230;-89
2021/03/03 06:39:16;;;;;;;18.92;12.55;;;5.20;46.50;;;;;;6221377;23;20479;-89
2021/03/03 06:41:42;;;;;;;15.57;11.95;;;5.70;46.00;;;;;;6220822;23;20138;-91
2021/03/03 06:44:45;;;;;;;17.20;12.73;;;5.30;45.60;;;;;;6221687;23;20164;-89
2021/03/03 06:47:11;;;;;;;81.78;46.40;;;5.50;45.20;;;;;;6224375;23;20485;-92
2021/03/03 06:49:45;;;;;;;39.40;25.63;;;6.00;45.90;;;;;;6221800;23;20224;-92
2021/03/03 06:52:10;;;;;;;30.27;21.08;;;5.70;45.30;;;;;;6222178;23;20142;-92
2021/03/03 06:54:36;;;;;;;23.77;15.30;;;6.30;46.20;;;;;;6223882;23;20193;-92
2021/03/03 06:57:12;;;;;;;17.80;14.33;;;5.80;46.20;;;;;;6222197;23;20208;-90
2021/03/03 06:59:56;;;;;;;15.20;11.82;;;5.80;46.00;;;;;;6222030;23;20376;-91
2021/03/03 07:02:30;;;;;;;16.77;12.10;;;5.90;45.50;;;;;;6196070;23;668898;-90
2021/03/03 07:04:57;;;;;;;13.38;10.95;;;6.20;45.90;;;;;;6228370;23;20172;-89
2021/03/03 07:07:25;;;;;;;13.98;11.65;;;6.10;45.80;;;;;;6229262;23;20178;-91
2021/03/03 07:09:57;;;;;;;18.98;13.18;;;6.10;45.60;;;;;;6228105;23;20592;-91
2021/03/03 07:12:26;;;;;;;18.10;13.95;;;5.90;45.80;;;;;;6228247;23;20150;-91
2021/03/03 07:14:56;;;;;;;16.48;12.43;;;6.10;45.50;;;;;;6230156;23;20168;-92
2021/03/03 07:17:30;;;;;;;12.07;10.77;;;6.00;45.70;;;;;;6229915;23;20303;-93
2021/03/03 07:20:03;;;;;;;15.55;11.70;;;6.40;45.10;;;;;;6229199;23;20149;-92
2021/03/03 07:22:35;;;;;;;15.70;12.02;;;6.60;45.80;;;;;;6228772;23;20153;-94
2021/03/03 07:25:10;;;;;;;16.88;11.70;;;6.70;45.60;;;;;;6231857;23;20156;-92
2021/03/03 07:27:38;;;;;;;15.73;11.00;;;6.70;45.20;;;;;;6223795;23;20176;-92
2021/03/03 07:30:34;;;;;;;15.23;10.80;;;6.80;44.80;;;;;;6229203;23;20153;-92
2021/03/03 07:33:00;;;;;;;15.15;11.68;;;7.00;45.30;;;;;;6232970;23;20240;-91
2021/03/03 07:35:27;;;;;;;14.20;10.75;;;7.00;44.80;;;;;;6230732;23;20142;-91
2021/03/03 07:37:54;;;;;;;12.57;10.75;;;7.10;44.50;;;;;;6230598;23;20156;-92
2021/03/03 07:40:26;;;;;;;13.15;11.60;;;6.90;43.60;;;;;;6232851;23;20156;-92
2021/03/03 07:43:26;;;;;;;12.48;10.27;;;6.70;43.20;;;;;;6246375;22;20138;-96
2021/03/03 07:45:52;;;;;;;13.30;11.32;;;7.10;43.50;;;;;;6234119;23;20164;-92
2021/03/03 07:51:41;;;;;;;12.45;11.05;;;7.40;43.50;;;;;;6256778;23;20199;-92
2021/03/03 07:54:14;;;;;;;16.48;11.65;;;7.30;43.20;;;;;;6225849;23;20213;-92
2021/03/03 07:56:41;;;;;;;14.02;10.68;;;7.50;43.10;;;;;;6230545;23;20157;-93
2021/03/03 07:59:08;;;;;;;19.77;12.80;;;7.80;43.00;;;;;;6230635;23;20149;-93
2021/03/03 08:01:35;;;;;;;14.50;10.93;;;7.90;42.10;;;;;;6227961;23;20174;-94
2021/03/03 08:04:00;;;;;;;17.00;13.25;;;7.30;42.50;;;;;;6227696;23;20150;-93
2021/03/03 08:06:36;;;;;;;13.70;11.23;;;7.70;42.90;;;;;;6226836;23;20237;-92
2021/03/03 08:09:13;;;;;;;13.98;12.18;;;7.80;42.90;;;;;;6224665;23;20165;-92
2021/03/03 08:11:46;;;;;;;17.73;11.35;;;7.70;42.10;;;;;;6232281;23;20188;-95
2021/03/03 08:14:41;;;;;;;15.52;13.15;;;8.20;42.60;;;;;;6238846;23;20136;-95
2021/03/03 08:17:10;;;;;;;16.60;12.70;;;8.00;42.10;;;;;;6205865;23;20658;-95
2021/03/03 08:19:59;;;;;;;21.58;15.63;;;7.90;42.10;;;;;;6236539;23;20129;-93
2021/03/03 08:22:54;;;;;;;17.73;14.20;;;8.40;42.70;;;;;;6227185;23;20391;-92
2021/03/03 08:25:48;;;;;;;19.23;13.05;;;8.20;42.10;;;;;;6222948;23;20161;-92
2021/03/03 08:28:33;;;;;;;18.63;13.98;;;8.20;41.40;;;;;;6223695;23;20181;-92
2021/03/03 08:31:08;;;;;;;16.08;13.40;;;8.30;41.30;;;;;;6225252;23;20152;-93
2021/03/03 08:33:58;;;;;;;21.83;13.27;;;8.50;41.30;;;;;;6224860;23;20156;-93
2021/03/03 08:36:24;;;;;;;20.60;12.85;;;8.60;40.90;;;;;;6231191;23;20150;-93
2021/03/03 08:39:17;;;;;;;15.68;13.15;;;8.60;40.50;;;;;;6228803;23;20169;-93
2021/03/03 08:41:43;;;;;;;19.48;13.50;;;8.60;40.30;;;;;;6230818;23;20146;-92
2021/03/03 08:51:25;;;;;;;16.83;12.57;;;8.90;40.20;;;;;;6267447;23;20196;-94
2021/03/03 08:57:35;;;;;;;20.80;15.50;;;9.30;39.70;;;;;;6261562;23;20141;-91
2021/03/03 09:00:01;;;;;;;15.75;14.05;;;9.00;40.00;;;;;;6223888;23;20580;-91
2021/03/03 09:02:38;;;;;;;19.83;15.35;;;9.10;40.10;;;;;;6223600;23;20220;-92
2021/03/03 09:05:09;;;;;;;16.75;14.50;;;9.30;39.70;;;;;;6223592;23;20217;-92
2021/03/03 09:07:34;;;;;;;21.42;12.77;;;9.60;39.60;;;;;;6223759;23;20191;-92
2021/03/03 09:10:07;;;;;;;17.60;13.37;;;9.80;39.30;;;;;;6225484;23;20513;-92
2021/03/03 09:12:38;;;;;;;14.82;13.27;;;10.00;38.00;;;;;;6224415;23;20146;-92
2021/03/03 09:15:19;;;;;;;17.10;13.07;;;10.10;37.60;;;;;;6224475;23;20680;-93
2021/03/03 09:17:45;;;;;;;18.20;15.70;;;10.40;37.20;;;;;;6224308;23;20596;-92
2021/03/03 09:23:55;;;;;;;17.65;15.75;;;9.80;37.50;;;;;;6257778;23;20133;-93
2021/03/03 09:26:22;;;;;;;20.10;14.02;;;9.90;38.50;;;;;;6232154;23;20546;-92
2021/03/03 09:28:47;;;;;;;16.30;14.60;;;10.40;37.40;;;;;;6225779;23;20591;-92
2021/03/03 09:31:37;;;;;;;15.53;13.80;;;10.30;36.60;;;;;;6226368;23;20149;-92
2021/03/03 09:34:03;;;;;;;14.13;12.73;;;10.40;36.10;;;;;;6224776;23;20150;-93
2021/03/03 09:36:38;;;;;;;16.00;13.45;;;10.60;35.50;;;;;;6225360;23;20154;-93
2021/03/03 09:39:04;;;;;;;21.30;15.40;;;10.70;35.20;;;;;;6223755;23;20489;-91
2021/03/03 09:41:30;;;;;;;16.83;15.03;;;10.40;34.70;;;;;;6224700;23;20157;-91
2021/03/03 09:44:07;;;;;;;16.83;13.77;;;10.60;35.30;;;;;;6224501;23;20181;-92
2021/03/03 09:47:12;;;;;;;18.95;14.68;;;10.80;35.40;;;;;;6224575;23;20608;-92
2021/03/03 09:49:38;;;;;;;20.42;15.38;;;10.70;34.40;;;;;;6223540;23;20150;-92
2021/03/03 09:52:21;;;;;;;18.00;15.10;;;11.10;34.80;;;;;;6223599;23;20157;-93
2021/03/03 09:54:47;;;;;;;25.30;16.58;;;11.20;34.10;;;;;;6223708;23;20152;-92
2021/03/03 09:57:19;;;;;;;23.70;16.33;;;11.10;33.20;;;;;;6223625;23;20153;-92
2021/03/03 09:59:46;;;;;;;18.33;16.52;;;11.70;33.20;;;;;;6223895;23;20385;-93
2021/03/03 10:02:15;;;;;;;19.42;16.52;;;11.30;32.80;;;;;;6218354;23;20637;-92
2021/03/03 10:04:50;;;;;;;17.30;14.95;;;12.00;33.20;;;;;;6220338;23;20445;-92
2021/03/03 10:07:21;;;;;;;19.33;14.93;;;12.00;33.80;;;;;;6218579;23;20178;-91
2021/03/03 10:10:26;;;;;;;18.60;15.60;;;12.10;32.90;;;;;;6220888;23;20143;-92
2021/03/03 10:12:52;;;;;;;18.75;15.68;;;11.90;32.50;;;;;;6222616;23;20431;-94
2021/03/03 10:22:15;;;;;;;18.90;17.10;;;11.50;33.00;;;;;;6129726;23;20351;-94
2021/03/03 10:24:41;;;;;;;19.83;16.42;;;11.40;34.70;;;;;;6103400;23;20155;-91
2021/03/03 10:27:18;;;;;;;17.17;15.40;;;11.40;34.30;;;;;;6102453;23;20172;-91
2021/03/03 10:29:46;;;;;;;21.80;17.63;;;11.50;34.20;;;;;;6177513;23;20225;-92
2021/03/03 10:32:13;;;;;;;18.80;16.80;;;11.40;33.50;;;;;;6218014;23;20155;-93
2021/03/03 10:35:10;;;;;;;22.08;17.63;;;11.80;33.80;;;;;;6218982;23;20381;-93
2021/03/03 10:38:16;;;;;;;19.73;15.73;;;12.10;32.90;;;;;;6218309;23;20147;-93
2021/03/03 10:40:44;;;;;;;19.70;15.13;;;12.50;32.80;;;;;;6242602;23;20436;-93
2021/03/03 10:43:18;;;;;;;18.33;15.57;;;12.60;32.50;;;;;;6217820;23;20385;-93
2021/03/03 10:49:14;;;;;;;18.90;14.90;;;13.60;30.80;;;;;;6220773;23;20357;-94
2021/03/03 10:58:45;;;;;;;17.10;15.10;;;13.80;28.90;;;;;;6159122;23;20424;-94
2021/03/03 11:01:10;;;;;;;18.87;14.90;;;13.90;28.50;;;;;;6132721;23;20242;-93
2021/03/03 11:03:53;;;;;;;17.00;14.40;;;14.20;28.40;;;;;;6133201;23;20808;-92
2021/03/03 11:09:40;;;;;;;15.60;14.10;;;14.60;28.10;;;;;;6158494;23;20432;-93
2021/03/03 11:12:54;;;;;;;17.23;14.50;;;14.80;27.70;;;;;;6132534;23;20382;-92
2021/03/03 11:45:33;;;;;;;15.33;13.60;;;16.40;25.80;;;;;;6244085;22;20402;-94
2021/03/03 11:47:59;;;;;;;14.23;12.70;;;16.50;26.20;;;;;;6221829;23;20428;-92
2021/03/03 11:50:27;;;;;;;13.33;11.93;;;16.60;25.40;;;;;;6221680;23;20373;-90
2021/03/03 11:52:52;;;;;;;13.88;12.48;;;16.80;25.20;;;;;;6249796;23;20388;-95
2021/03/03 11:55:32;;;;;;;17.07;13.67;;;17.00;25.10;;;;;;6224441;23;20137;-95
2021/03/03 11:57:58;;;;;;;14.73;13.00;;;17.00;24.80;;;;;;6230777;23;20158;-92
2021/03/03 12:00:26;;;;;;;15.23;13.70;;;17.10;24.60;;;;;;6223838;23;20811;-92
2021/03/03 12:02:51;;;;;;;17.50;14.40;;;17.50;24.50;;;;;;6223008;23;20150;-92
2021/03/03 12:05:52;;;;;;;17.27;13.43;;;17.40;24.40;;;;;;6227035;23;20448;-96
2021/03/03 12:08:19;;;;;;;13.90;12.60;;;17.60;24.40;;;;;;6236100;23;20157;-96
2021/03/03 12:10:46;;;;;;;15.40;12.07;;;17.50;23.70;;;;;;6225385;23;20365;-92
2021/03/03 12:13:12;;;;;;;18.83;13.30;;;17.60;23.10;;;;;;6227315;23;20522;-93
2021/03/03 12:15:39;;;;;;;12.47;11.20;;;17.90;23.50;;;;;;6227966;23;20379;-94
2021/03/03 12:18:05;;;;;;;14.67;13.00;;;17.50;23.00;;;;;;6225111;23;20187;-92
2021/03/03 12:24:29;;;;;;;15.00;13.70;;;17.70;23.00;;;;;;6266696;23;20416;-94
2021/03/03 12:26:55;;;;;;;14.30;12.83;;;17.80;23.10;;;;;;6225043;23;20412;-95
2021/03/03 12:29:20;;;;;;;21.70;15.10;;;17.80;23.20;;;;;;6225228;23;20415;-93
2021/03/03 12:31:46;;;;;;;14.90;13.07;;;17.90;23.30;;;;;;6225226;23;20234;-93
2021/03/03 12:34:12;;;;;;;17.80;13.30;;;17.90;23.20;;;;;;6224808;23;20181;-92
2021/03/03 12:36:38;;;;;;;15.83;13.63;;;18.00;23.30;;;;;;6224071;23;20153;-92
2021/03/03 12:39:04;;;;;;;18.50;13.20;;;18.00;23.20;;;;;;6224473;23;20416;-92
2021/03/03 12:41:30;;;;;;;17.30;14.83;;;18.00;23.20;;;;;;6224735;23;20213;-93
2021/03/03 12:44:38;;;;;;;12.97;11.67;;;18.00;21.50;;;;;;6229942;22;20419;-94
2021/03/03 12:57:28;;;;;;;12.87;11.57;;;17.70;20.10;;;;;;6177388;23;20378;-96
2021/03/03 13:03:17;;;;;;;15.13;12.40;;;18.30;21.80;;;;;;6168651;23;20370;-95
2021/03/03 13:05:42;;;;;;;13.80;12.60;;;18.10;22.00;;;;;;6140241;23;20415;-92
2021/03/03 13:11:31;;;;;;;14.37;13.07;;;18.00;22.40;;;;;;6177635;23;20241;-95
2021/03/03 13:27:18;;;;;;;15.37;13.57;;;18.10;23.70;;;;;;6224669;22;20452;-91
2021/03/03 13:29:43;;;;;;;15.27;13.70;;;18.10;23.70;;;;;;6198512;23;20366;-91
2021/03/03 13:32:11;;;;;;;14.77;13.37;;;18.30;23.70;;;;;;6199883;23;20456;-92
2021/03/03 13:34:41;;;;;;;14.70;12.60;;;18.50;23.60;;;;;;6198530;23;20138;-91
2021/03/03 13:37:08;;;;;;;13.90;12.60;;;18.60;23.60;;;;;;6223616;23;20747;-90
2021/03/03 13:39:34;;;;;;;15.63;14.13;;;18.60;23.60;;;;;;6225420;23;20376;-91
2021/03/03 13:42:00;;;;;;;15.93;13.90;;;18.70;23.70;;;;;;6224247;23;20684;-90
2021/03/03 13:44:26;;;;;;;14.23;12.83;;;18.80;23.60;;;;;;6199271;23;20377;-91
2021/03/03 13:46:53;;;;;;;14.70;13.33;;;18.90;23.50;;;;;;6223582;23;20178;-90
2021/03/03 13:49:19;;;;;;;16.77;14.27;;;19.10;23.50;;;;;;6199107;23;20374;-91
2021/03/03 13:51:46;;;;;;;14.53;13.03;;;19.00;22.70;;;;;;6197776;23;20432;-91
2021/03/03 13:54:11;;;;;;;21.07;15.40;;;19.10;22.40;;;;;;6193578;23;20138;-91
2021/03/03 13:56:37;;;;;;;17.40;15.70;;;19.10;22.20;;;;;;6194166;23;20473;-91
2021/03/03 13:59:03;;;;;;;18.43;15.30;;;19.10;22.80;;;;;;6192386;23;20185;-90
2021/03/03 14:01:29;;;;;;;15.23;13.63;;;19.20;22.60;;;;;;6195793;23;20233;-91
2021/03/03 14:03:54;;;;;;;14.97;13.47;;;19.10;22.30;;;;;;6194839;23;20158;-92
2021/03/03 14:06:20;;;;;;;13.83;12.43;;;19.10;22.10;;;;;;6192602;23;20382;-91
2021/03/03 14:08:46;;;;;;;17.50;14.80;;;19.20;22.10;;;;;;6196268;23;20150;-90
2021/03/03 14:11:12;;;;;;;18.80;14.77;;;19.10;22.00;;;;;;6193088;23;20139;-89
2021/03/03 14:13:38;;;;;;;15.00;13.50;;;19.10;22.20;;;;;;6192183;23;20142;-90
2021/03/03 14:16:19;;;;;;;15.40;13.67;;;19.10;22.30;;;;;;6192974;23;20374;-91
2021/03/03 14:18:44;;;;;;;19.00;15.40;;;19.10;22.20;;;;;;6192771;23;20570;-90
2021/03/03 14:21:11;;;;;;;16.90;13.37;;;19.10;21.70;;;;;;6193711;23;20372;-94
2021/03/03 14:23:37;;;;;;;13.87;12.53;;;19.00;21.80;;;;;;6193705;23;20558;-92
2021/03/03 14:26:02;;;;;;;17.00;14.30;;;18.80;22.50;;;;;;6217752;23;20372;-93
2021/03/03 14:28:29;;;;;;;15.60;14.00;;;18.60;23.00;;;;;;6191354;23;20418;-90
2021/03/03 14:30:57;;;;;;;21.63;14.87;;;18.80;23.10;;;;;;6193087;23;20154;-90
2021/03/03 14:33:22;;;;;;;16.60;14.90;;;18.90;22.90;;;;;;6195561;23;20385;-91
2021/03/03 14:35:56;;;;;;;15.30;13.83;;;19.10;22.50;;;;;;6192645;23;20851;-91
2021/03/03 14:38:24;;;;;;;14.70;13.13;;;18.70;22.50;;;;;;6192633;23;20158;-90
2021/03/03 14:40:59;;;;;;;16.00;14.53;;;19.00;22.50;;;;;;6193159;23;20896;-91
2021/03/03 14:43:25;;;;;;;13.63;12.27;;;19.00;22.40;;;;;;6193280;23;20840;-90
2021/03/03 14:46:00;;;;;;;16.03;14.27;;;19.20;22.60;;;;;;6192381;23;20375;-91
2021/03/03 14:48:25;;;;;;;20.80;18.60;;;19.20;22.30;;;;;;6192124;23;20476;-91
2021/03/03 14:50:56;;;;;;;17.53;15.93;;;19.20;22.00;;;;;;6193322;23;20348;-93
2021/03/03 14:53:22;;;;;;;29.98;27.40;;;19.40;22.30;;;;;;6192982;23;20852;-91
2021/03/03 14:55:50;;;;;;;33.70;31.00;;;19.40;22.00;;;;;;6195137;23;20142;-92
2021/03/03 14:58:16;;;;;;;24.83;22.47;;;19.20;22.00;;;;;;6194321;23;20377;-91
2021/03/03 15:00:52;;;;;;;19.80;17.90;;;19.10;22.00;;;;;;6194286;23;20370;-91
2021/03/03 15:03:18;;;;;;;18.57;16.87;;;19.30;22.20;;;;;;6193790;23;20257;-91
2021/03/03 15:05:51;;;;;;;16.17;14.53;;;19.10;22.30;;;;;;6193472;23;20373;-92
2021/03/03 15:08:16;;;;;;;16.03;14.40;;;19.20;22.20;;;;;;6197684;23;20423;-92
2021/03/03 15:10:44;;;;;;;16.53;13.87;;;19.00;21.80;;;;;;6197181;23;20409;-92
2021/03/03 15:13:10;;;;;;;15.90;14.23;;;19.20;21.90;;;;;;6195055;23;20205;-91
2021/03/03 15:15:54;;;;;;;17.23;15.50;;;19.10;22.10;;;;;;6192207;23;20377;-91
2021/03/03 15:18:20;;;;;;;16.73;15.10;;;19.10;22.00;;;;;;6190513;23;20360;-89
2021/03/03 15:20:46;;;;;;;15.43;13.90;;;18.90;22.20;;;;;;6191433;23;20763;-91
2021/03/03 15:23:11;;;;;;;14.03;12.67;;;18.80;22.30;;;;;;6191981;23;20162;-93
2021/03/03 15:25:53;;;;;;;15.10;13.20;;;18.90;23.10;;;;;;6192428;23;20154;-92
2021/03/03 15:28:24;;;;;;;15.27;11.57;;;18.60;22.60;;;;;;6192261;23;20190;-92
2021/03/03 15:30:50;;;;;;;14.10;12.00;;;18.80;22.90;;;;;;6192185;23;20382;-93
2021/03/03 15:33:16;;;;;;;16.67;15.07;;;18.80;23.10;;;;;;6193131;23;20378;-93
2021/03/03 15:35:42;;;;;;;15.73;14.03;;;18.70;23.20;;;;;;6193404;23;20189;-93
2021/03/03 15:38:08;;;;;;;14.67;13.20;;;18.60;22.90;;;;;;6192490;23;20456;-92
2021/03/03 15:43:49;;;;;;;13.77;12.43;;;18.60;23.20;;;;;;6232550;23;20143;-92
2021/03/03 15:46:15;;;;;;;17.60;13.10;;;18.60;23.60;;;;;;6200586;23;20385;-93
2021/03/03 15:48:41;;;;;;;15.43;13.83;;;18.50;23.60;;;;;;6199816;23;20170;-92
2021/03/03 15:51:08;;;;;;;14.20;12.63;;;18.50;23.60;;;;;;6196129;23;20246;-91
2021/03/03 15:53:33;;;;;;;15.73;14.00;;;18.50;23.60;;;;;;6197517;23;20356;-92
2021/03/03 15:56:43;;;;;;;17.53;15.63;;;18.40;23.80;;;;;;6199971;23;20353;-94
2021/03/03 15:59:08;;;;;;;13.93;12.53;;;18.20;23.90;;;;;;6196195;23;20655;-93
2021/03/03 16:01:41;;;;;;;14.80;13.30;;;18.30;24.30;;;;;;6193711;23;20370;-94
2021/03/03 16:04:07;;;;;;;16.33;14.67;;;18.20;24.20;;;;;;6195327;23;20221;-95
2021/03/03 16:06:35;;;;;;;14.93;13.23;;;18.20;24.60;;;;;;6198423;23;20378;-92
2021/03/03 16:09:01;;;;;;;17.83;12.20;;;18.40;25.60;;;;;;6193192;23;20226;-92
2021/03/03 16:11:59;;;;;;;19.03;13.70;;;18.10;25.60;;;;;;6191869;23;20879;-90
2021/03/03 16:14:25;;;;;;;15.23;13.63;;;18.00;25.60;;;;;;6193356;23;20249;-93
2021/03/03 16:17:05;;;;;;;14.30;12.70;;;18.00;25.90;;;;;;6192706;23;20374;-94
2021/03/03 16:19:31;;;;;;;15.60;13.10;;;17.80;25.80;;;;;;6177780;23;20162;-94
2021/03/03 16:21:56;;;;;;;15.40;12.87;;;17.70;26.00;;;;;;6195480;23;20673;-91
2021/03/03 16:28:03;;;;;;;16.80;12.60;;;17.50;25.90;;;;;;6219912;23;20203;-94
2021/03/03 16:30:28;;;;;;;19.07;12.53;;;17.60;26.40;;;;;;6195673;23;20524;-92
2021/03/03 16:32:54;;;;;;;14.23;12.73;;;17.40;26.40;;;;;;6197814;23;20390;-93
2021/03/03 16:38:42;;;;;;;13.20;11.90;;;17.60;26.90;;;;;;6223580;23;20194;-93
2021/03/03 16:42:02;;;;;;;15.63;13.93;;;17.30;27.20;;;;;;6197397;23;20389;-93
2021/03/03 16:44:28;;;;;;;14.47;12.97;;;16.90;26.80;;;;;;6198233;23;20151;-92
2021/03/03 16:46:56;;;;;;;13.67;12.27;;;16.90;27.10;;;;;;6197534;23;20447;-94
2021/03/03 16:52:47;;;;;;;17.37;13.60;;;16.80;27.20;;;;;;6223472;23;20337;-92
2021/03/03 16:55:13;;;;;;;14.03;12.70;;;16.70;27.60;;;;;;6197551;23;20377;-92
2021/03/03 16:57:39;;;;;;;19.00;13.87;;;16.60;27.80;;;;;;6194419;23;20413;-92
2021/03/03 17:00:47;;;;;;;20.53;13.87;;;16.40;27.90;;;;;;6197193;23;20462;-91
2021/03/03 17:03:13;;;;;;;15.80;13.30;;;16.60;28.20;;;;;;6195078;23;20180;-93
2021/03/03 17:05:41;;;;;;;14.57;13.07;;;16.10;28.20;;;;;;6195141;23;20828;-90
2021/03/03 17:08:07;;;;;;;14.60;12.77;;;16.30;28.40;;;;;;6218392;23;20230;-91
2021/03/03 17:10:52;;;;;;;15.77;12.80;;;16.00;28.40;;;;;;6217688;23;20435;-91
2021/03/03 17:13:18;;;;;;;14.67;12.70;;;16.00;28.50;;;;;;6218486;23;20473;-91
2021/03/03 17:16:04;;;;;;;16.70;12.93;;;15.90;28.50;;;;;;6193376;23;20401;-91
2021/03/03 17:18:30;;;;;;;17.07;13.47;;;15.70;28.90;;;;;;6218122;23;20385;-91
2021/03/03 17:21:28;;;;;;;17.00;12.83;;;15.70;29.50;;;;;;6193377;23;20370;-93
2021/03/03 17:23:54;;;;;;;17.47;15.60;;;15.50;30.00;;;;;;6218451;23;20157;-92
2021/03/03 17:26:23;;;;;;;19.20;17.20;;;15.40;30.00;;;;;;6193789;23;20382;-92
2021/03/03 17:32:11;;;;;;;35.00;27.93;;;15.40;30.10;;;;;;6219896;23;20391;-90
2021/03/03 17:34:37;;;;;;;25.80;19.97;;;15.30;30.40;;;;;;6193105;23;20384;-91
2021/03/03 17:37:35;;;;;;;22.00;17.10;;;15.30;30.40;;;;;;6193305;23;20389;-91
2021/03/03 17:40:02;;;;;;;21.33;16.17;;;15.20;30.50;;;;;;6196201;23;20440;-92
2021/03/03 17:46:05;;;;;;;16.27;14.30;;;14.90;30.80;;;;;;6220365;23;20392;-92
2021/03/03 17:48:31;;;;;;;19.97;16.73;;;14.90;31.70;;;;;;6193087;23;20911;-91
2021/03/03 17:51:02;;;;;;;15.63;13.93;;;15.00;32.20;;;;;;6217925;23;20370;-90
2021/03/03 17:53:30;;;;;;;14.43;12.93;;;14.80;32.30;;;;;;6194099;23;20739;-91
2021/03/03 17:56:12;;;;;;;13.77;12.37;;;14.50;32.20;;;;;;6193041;23;20923;-92
2021/03/03 17:58:38;;;;;;;17.30;13.83;;;14.70;32.70;;;;;;6193588;23;20444;-92
2021/03/03 18:01:03;;;;;;;18.07;13.43;;;14.80;32.90;;;;;;6192394;23;20378;-91
2021/03/03 18:03:59;;;;;;;17.80;13.33;;;14.70;33.10;;;;;;6192728;23;20150;-90
2021/03/03 18:06:25;;;;;;;15.50;13.93;;;14.40;33.00;;;;;;6196056;23;20607;-91
2021/03/03 18:12:56;;;;;;;20.97;13.63;;;14.30;33.80;;;;;;6220963;23;20515;-94
2021/03/03 18:15:35;;;;;;;16.90;14.07;;;14.20;34.00;;;;;;6193673;23;20381;-94
2021/03/03 18:18:01;;;;;;;16.00;13.60;;;14.20;34.20;;;;;;6218264;23;20389;-90
2021/03/03 18:23:48;;;;;;;15.13;13.53;;;14.30;33.80;;;;;;6220705;23;20138;-94
2021/03/03 18:33:05;;;;;;;20.03;14.73;;;14.30;34.10;;;;;;6221336;23;20365;-92
2021/03/03 18:36:20;;;;;;;21.00;14.13;;;14.30;34.50;;;;;;6194635;23;20390;-92
2021/03/03 18:38:46;;;;;;;20.23;16.93;;;14.20;34.30;;;;;;6194676;23;20384;-95
2021/03/03 18:41:12;;;;;;;21.27;17.53;;;14.20;34.60;;;;;;6195569;23;20744;-92
2021/03/03 18:47:25;;;;;;;19.63;15.90;;;13.90;35.10;;;;;;6221793;23;20274;-93
2021/03/03 18:53:13;;;;;;;16.57;14.57;;;13.70;35.10;;;;;;6221144;23;20352;-92
2021/03/03 18:55:47;;;;;;;75.67;49.00;;;13.70;35.10;;;;;;6195404;23;20378;-91
2021/03/03 18:58:13;;;;;;;25.60;19.97;;;13.70;35.10;;;;;;6197751;23;20155;-92
2021/03/03 19:00:44;;;;;;;18.53;16.63;;;13.90;35.40;;;;;;6194571;23;20820;-90
2021/03/03 19:03:10;;;;;;;18.50;15.80;;;13.80;35.00;;;;;;6191976;23;20440;-90
2021/03/03 19:05:42;;;;;;;15.47;13.83;;;13.90;35.00;;;;;;6216524;23;20389;-87
2021/03/03 19:08:08;;;;;;;18.93;13.30;;;13.70;34.90;;;;;;6192622;23;20508;-91
2021/03/03 19:11:12;;;;;;;14.07;12.50;;;14.10;35.20;;;;;;6192802;23;20381;-90
2021/03/03 19:13:38;;;;;;;14.83;13.23;;;13.90;35.10;;;;;;6196163;23;20146;-91
2021/03/03 19:19:25;;;;;;;16.07;12.47;;;13.80;35.20;;;;;;6221267;23;20357;-91
2021/03/03 19:28:36;;;;;;;17.73;15.20;;;13.50;36.60;;;;;;6219946;23;20556;-93
2021/03/03 19:31:01;;;;;;;17.37;14.80;;;13.10;37.10;;;;;;6193979;23;20389;-92
2021/03/03 19:33:27;;;;;;;17.03;15.27;;;13.10;37.30;;;;;;6194001;23;20384;-94
2021/03/03 19:36:35;;;;;;;16.23;14.60;;;13.00;36.90;;;;;;6193140;23;20147;-93
2021/03/03 19:39:01;;;;;;;14.90;12.27;;;13.20;36.70;;;;;;6193280;23;20149;-94
2021/03/03 19:41:26;;;;;;;16.60;13.30;;;13.00;36.40;;;;;;6194736;23;20373;-92
2021/03/03 19:43:58;;;;;;;20.10;15.10;;;13.50;36.50;;;;;;6194810;23;20177;-92
2021/03/03 19:46:25;;;;;;;14.20;12.33;;;13.30;36.50;;;;;;6193570;23;20189;-91
2021/03/03 19:52:14;;;;;;;20.70;13.90;;;13.10;36.10;;;;;;6220370;23;20365;-91
2021/03/03 19:55:20;;;;;;;15.93;14.33;;;13.40;36.40;;;;;;6192807;23;20468;-92
2021/03/03 19:57:46;;;;;;;15.13;13.53;;;13.10;36.40;;;;;;6192988;23;20384;-91
2021/03/03 20:00:14;;;;;;;15.20;13.60;;;13.40;36.70;;;;;;6192958;23;20461;-93
2021/03/03 20:02:40;;;;;;;13.67;12.20;;;13.40;36.80;;;;;;6218191;23;20470;-92
2021/03/03 20:05:10;;;;;;;19.47;15.07;;;13.70;37.00;;;;;;6193286;23;20378;-93
2021/03/03 20:14:20;;;;;;;16.13;14.40;;;13.40;36.40;;;;;;6219917;23;20369;-94
2021/03/03 20:16:51;;;;;;;16.47;13.03;;;13.40;36.40;;;;;;6194887;23;20381;-95
2021/03/03 20:19:17;;;;;;;15.98;12.57;;;13.60;36.60;;;;;;6193182;23;20473;-93
2021/03/03 20:22:02;;;;;;;19.97;13.27;;;13.50;36.60;;;;;;6194404;23;20464;-93
2021/03/03 20:24:28;;;;;;;13.47;11.33;;;13.50;37.10;;;;;;6222065;23;20139;-94
2021/03/03 20:34:18;;;;;;;14.40;12.90;;;13.30;36.70;;;;;;6221519;23;20337;-92
2021/03/03 20:36:44;;;;;;;14.20;12.77;;;13.90;37.50;;;;;;6194612;23;20234;-94
2021/03/03 20:39:11;;;;;;;12.90;11.60;;;13.00;37.00;;;;;;6195024;23;20388;-92
2021/03/03 20:41:46;;;;;;;13.47;12.07;;;12.90;37.20;;;;;;6194735;23;20381;-91
2021/03/03 20:44:12;;;;;;;15.30;12.70;;;13.00;37.40;;;;;;6194806;23;20374;-92
2021/03/03 20:47:21;;;;;;;13.10;11.70;;;12.90;37.50;;;;;;6218872;23;20389;-92